Time;durP1;ratioP1;P1;durP2;ratioP2;P2;SDS_P1;SDS_P2;PMS_P1;PMS_P2;Temp;Humidity;BMP_temperature;BMP_pressure;BME280_temperature;BME280_humidity;BME280_pressure;Samples;Min_cycle;Max_cycle;Signal;HPM_P1;HPM_P2
2023/05/30 00:01:48;;;;;;;12.35;3.08;;;10.60;82.00;;;;;;4929660;29;20043;-66
2023/05/30 00:04:14;;;;;;;7.70;2.90;;;10.60;82.00;;;;;;4919072;29;20050;-66
2023/05/30 00:06:40;;;;;;;11.23;3.03;;;10.60;82.10;;;;;;4922459;29;20059;-66
2023/05/30 00:09:05;;;;;;;12.87;3.80;;;10.60;82.30;;;;;;4932124;29;20059;-66
2023/05/30 00:11:31;;;;;;;11.07;3.20;;;10.60;83.10;;;;;;4914811;29;20477;-66
2023/05/30 00:13:58;;;;;;;7.70;3.20;;;10.50;82.70;;;;;;4930704;29;20071;-66
2023/05/30 00:16:23;;;;;;;14.20;2.88;;;10.60;82.20;;;;;;4927480;29;20048;-66
2023/05/30 00:18:52;;;;;;;10.43;3.30;;;10.50;82.00;;;;;;4943750;28;20039;-66
2023/05/30 00:21:18;;;;;;;12.45;2.90;;;10.60;82.20;;;;;;4917062;29;20043;-66
2023/05/30 00:23:45;;;;;;;13.93;3.05;;;10.50;82.60;;;;;;4924285;29;20089;-66
2023/05/30 00:26:11;;;;;;;12.38;2.92;;;10.50;82.50;;;;;;4934973;29;20095;-66
2023/05/30 00:28:38;;;;;;;13.30;3.05;;;10.50;82.50;;;;;;4930736;29;20147;-66
2023/05/30 00:31:05;;;;;;;13.55;3.33;;;10.50;82.30;;;;;;4936107;29;20039;-66
2023/05/30 00:33:31;;;;;;;14.23;4.25;;;10.60;82.10;;;;;;4927092;29;20050;-66
2023/05/30 00:35:57;;;;;;;10.02;3.55;;;10.60;82.10;;;;;;4934663;29;20126;-66
2023/05/30 00:38:23;;;;;;;13.87;3.50;;;10.60;82.00;;;;;;4932025;29;20452;-66
2023/05/30 00:40:48;;;;;;;12.80;3.43;;;10.60;82.20;;;;;;4934778;29;20275;-66
2023/05/30 00:43:15;;;;;;;14.07;3.17;;;10.60;81.90;;;;;;4930888;29;20039;-66
2023/05/30 00:45:41;;;;;;;12.48;3.42;;;10.60;81.90;;;;;;4930668;29;20488;-66
2023/05/30 00:48:07;;;;;;;14.00;4.00;;;10.50;82.40;;;;;;4929829;29;20118;-66
2023/05/30 00:50:33;;;;;;;10.85;3.55;;;10.60;82.50;;;;;;4929969;29;20071;-66
2023/05/30 00:53:00;;;;;;;8.43;2.80;;;10.60;82.50;;;;;;4936528;29;20040;-66
2023/05/30 00:55:27;;;;;;;12.02;3.10;;;10.50;82.30;;;;;;4928806;29;20541;-66
2023/05/30 00:57:53;;;;;;;9.35;3.08;;;10.50;82.10;;;;;;4936581;29;20040;-66
2023/05/30 01:00:23;;;;;;;9.57;3.30;;;10.50;82.50;;;;;;4936775;29;20404;-66
2023/05/30 01:02:48;;;;;;;9.48;3.08;;;10.40;82.40;;;;;;4929408;29;20118;-66
2023/05/30 01:05:14;;;;;;;10.93;3.63;;;10.40;82.10;;;;;;4920274;29;20075;-66
2023/05/30 01:07:44;;;;;;;11.70;3.03;;;10.40;82.20;;;;;;4935802;29;20924;-66
2023/05/30 01:10:14;;;;;;;13.23;3.38;;;10.40;82.50;;;;;;4940376;29;20098;-66
2023/05/30 01:12:51;;;;;;;11.13;3.40;;;10.40;82.40;;;;;;4936425;29;20047;-66
2023/05/30 01:15:22;;;;;;;15.63;3.65;;;10.30;82.30;;;;;;4934418;29;20134;-66
2023/05/30 01:18:14;;;;;;;7.70;2.97;;;10.30;82.20;;;;;;4914537;29;20126;-66
2023/05/30 01:20:44;;;;;;;8.65;3.00;;;10.30;82.40;;;;;;4928900;29;20519;-66
2023/05/30 01:23:22;;;;;;;10.13;3.20;;;10.30;82.90;;;;;;4929499;29;20423;-66
2023/05/30 01:26:17;;;;;;;7.45;2.80;;;10.30;82.60;;;;;;4936250;29;20591;-66
2023/05/30 01:28:44;;;;;;;9.90;3.28;;;10.30;82.60;;;;;;4928046;29;20040;-66
2023/05/30 01:31:10;;;;;;;11.38;2.92;;;10.30;82.70;;;;;;4929624;29;20067;-66
2023/05/30 01:33:37;;;;;;;12.02;2.95;;;10.40;82.70;;;;;;4929156;29;20086;-66
2023/05/30 01:36:03;;;;;;;14.50;3.15;;;10.40;82.70;;;;;;4911252;29;20050;-66
2023/05/30 01:38:29;;;;;;;9.50;2.78;;;10.30;82.80;;;;;;4930141;29;20503;-66
2023/05/30 01:40:58;;;;;;;7.53;3.00;;;10.40;83.00;;;;;;4934334;29;20050;-66
2023/05/30 01:43:38;;;;;;;9.93;3.22;;;10.40;82.80;;;;;;4933143;29;20122;-66
2023/05/30 01:46:22;;;;;;;11.77;3.03;;;10.40;82.60;;;;;;4929580;29;20495;-66
2023/05/30 01:49:09;;;;;;;15.25;3.42;;;10.40;82.70;;;;;;4929703;29;20095;-66
2023/05/30 01:51:57;;;;;;;11.57;3.25;;;10.40;82.70;;;;;;4938581;29;20088;-66
2023/05/30 01:54:26;;;;;;;10.10;2.83;;;10.40;82.30;;;;;;4929146;29;20518;-66
2023/05/30 01:56:56;;;;;;;8.88;2.88;;;10.40;82.30;;;;;;4929216;29;20055;-66
2023/05/30 01:59:25;;;;;;;17.77;4.03;;;10.50;82.40;;;;;;4929527;29;20110;-66
2023/05/30 02:01:53;;;;;;;15.82;3.72;;;10.40;82.70;;;;;;4929329;29;20131;-66
2023/05/30 02:04:19;;;;;;;13.52;3.72;;;10.50;82.80;;;;;;4935386;29;20044;-66
2023/05/30 02:06:44;;;;;;;11.57;3.30;;;10.50;82.70;;;;;;4932850;29;20450;-66
2023/05/30 02:09:10;;;;;;;12.77;3.20;;;10.50;82.70;;;;;;4936483;29;20054;-66
2023/05/30 02:11:37;;;;;;;15.83;3.90;;;10.50;82.80;;;;;;4935694;29;20436;-66
2023/05/30 02:14:05;;;;;;;11.02;3.35;;;10.50;83.10;;;;;;4914479;29;20043;-66
2023/05/30 02:16:31;;;;;;;11.70;3.63;;;10.50;83.40;;;;;;4927807;29;20305;-66
2023/05/30 02:18:57;;;;;;;11.50;3.57;;;10.50;83.50;;;;;;4950781;28;20175;-66
2023/05/30 02:21:22;;;;;;;12.35;3.95;;;10.50;83.60;;;;;;4936683;29;20047;-66
2023/05/30 02:23:49;;;;;;;11.80;3.23;;;10.50;84.00;;;;;;4937034;29;20190;-67
2023/05/30 02:26:15;;;;;;;13.95;2.88;;;10.50;84.00;;;;;;4928810;29;20047;-66
2023/05/30 02:28:41;;;;;;;9.37;2.83;;;10.50;83.70;;;;;;4916742;29;20043;-66
2023/05/30 02:31:07;;;;;;;12.20;3.00;;;10.60;83.60;;;;;;4932850;29;20385;-66
2023/05/30 02:33:33;;;;;;;12.33;3.53;;;10.60;83.90;;;;;;4932501;29;20095;-66
2023/05/30 02:35:58;;;;;;;13.90;3.53;;;10.60;83.60;;;;;;4916346;29;20063;-66
2023/05/30 02:38:25;;;;;;;13.27;3.40;;;10.60;83.70;;;;;;4930420;29;20036;-66
2023/05/30 02:40:51;;;;;;;14.40;3.25;;;10.60;83.60;;;;;;4937801;29;20534;-66
2023/05/30 02:43:16;;;;;;;14.90;3.63;;;10.60;83.40;;;;;;4934540;29;20043;-66
2023/05/30 02:45:42;;;;;;;13.70;3.40;;;10.60;83.60;;;;;;4937961;29;20066;-66
2023/05/30 02:48:08;;;;;;;11.00;3.03;;;10.60;83.30;;;;;;4933956;29;20043;-66
2023/05/30 02:50:34;;;;;;;12.90;3.58;;;10.60;83.10;;;;;;4937224;29;20511;-66
2023/05/30 02:53:01;;;;;;;16.93;3.50;;;10.60;83.10;;;;;;4940103;29;20107;-66
2023/05/30 02:55:27;;;;;;;14.45;3.58;;;10.60;82.90;;;;;;4932096;29;20122;-66
2023/05/30 02:57:52;;;;;;;15.63;3.53;;;10.70;82.80;;;;;;4938628;29;20241;-66
2023/05/30 03:00:20;;;;;;;14.67;3.40;;;10.70;83.00;;;;;;4920476;29;20501;-66
2023/05/30 03:02:46;;;;;;;12.85;2.83;;;10.70;82.80;;;;;;4917650;29;20067;-66
2023/05/30 03:05:12;;;;;;;14.37;3.40;;;10.70;83.30;;;;;;4932426;29;20054;-66
2023/05/30 03:07:38;;;;;;;14.27;3.57;;;10.70;83.80;;;;;;4937097;29;20391;-66
2023/05/30 03:10:04;;;;;;;13.90;3.67;;;10.60;83.60;;;;;;4934711;29;20542;-66
2023/05/30 03:12:30;;;;;;;14.18;3.13;;;10.70;83.60;;;;;;4933088;29;20505;-66
2023/05/30 03:14:56;;;;;;;12.07;3.47;;;10.70;83.90;;;;;;4931507;29;20164;-67
2023/05/30 03:17:22;;;;;;;14.33;3.60;;;10.70;83.80;;;;;;4924589;29;20134;-66
2023/05/30 03:19:48;;;;;;;16.83;3.20;;;10.70;83.80;;;;;;4923124;29;20499;-66
2023/05/30 03:22:14;;;;;;;10.95;3.22;;;10.70;83.90;;;;;;4931176;29;20559;-66
2023/05/30 03:24:40;;;;;;;15.20;4.87;;;10.70;84.10;;;;;;4930614;29;20071;-66
2023/05/30 03:27:07;;;;;;;10.40;2.87;;;10.70;84.10;;;;;;4930368;29;20615;-66
2023/05/30 03:29:33;;;;;;;15.20;3.15;;;10.70;84.30;;;;;;4931190;29;20570;-66
2023/05/30 03:31:59;;;;;;;13.27;3.70;;;10.70;84.50;;;;;;4931205;29;20036;-66
2023/05/30 03:34:25;;;;;;;10.80;3.43;;;10.70;85.10;;;;;;4936710;29;20039;-66
2023/05/30 03:36:52;;;;;;;14.48;3.92;;;10.70;84.90;;;;;;4931557;29;20295;-66
2023/05/30 03:39:21;;;;;;;16.58;3.97;;;10.80;85.20;;;;;;4930068;29;20054;-66
2023/05/30 03:41:47;;;;;;;16.15;3.50;;;10.80;85.60;;;;;;4915973;29;20467;-66
2023/05/30 03:44:13;;;;;;;19.63;4.07;;;10.80;85.30;;;;;;4929469;29;20047;-66
2023/05/30 03:46:39;;;;;;;13.67;3.37;;;10.80;85.50;;;;;;4938191;29;20053;-66
2023/05/30 03:49:05;;;;;;;14.75;3.47;;;10.80;85.60;;;;;;4936104;29;20287;-66
2023/05/30 03:51:32;;;;;;;14.57;3.55;;;10.80;85.40;;;;;;4935174;29;20063;-66
2023/05/30 03:53:58;;;;;;;14.05;3.22;;;10.80;85.60;;;;;;4936913;29;20403;-66
2023/05/30 03:56:23;;;;;;;14.90;3.53;;;10.80;85.40;;;;;;4937476;29;20044;-66
2023/05/30 03:58:50;;;;;;;11.83;3.93;;;10.80;85.30;;;;;;4931160;29;20047;-66
2023/05/30 04:01:15;;;;;;;14.65;3.92;;;10.90;85.20;;;;;;4931047;29;20051;-66
2023/05/30 04:03:42;;;;;;;14.60;4.03;;;10.90;85.30;;;;;;4915573;29;20039;-66
2023/05/30 04:06:10;;;;;;;13.35;3.58;;;10.90;84.80;;;;;;4931661;29;20408;-66
2023/05/30 04:08:40;;;;;;;16.20;3.47;;;10.90;84.40;;;;;;4937499;29;20050;-66
2023/05/30 04:11:06;;;;;;;12.52;3.03;;;10.90;84.20;;;;;;4930142;29;20060;-66
2023/05/30 04:13:32;;;;;;;12.45;3.10;;;10.90;84.10;;;;;;4936997;29;20051;-66
2023/05/30 04:16:00;;;;;;;12.90;3.60;;;11.00;83.60;;;;;;4930468;29;20054;-66
2023/05/30 04:18:26;;;;;;;11.00;2.97;;;11.00;83.70;;;;;;4937106;29;20054;-66
2023/05/30 04:20:51;;;;;;;15.87;3.23;;;11.10;83.60;;;;;;4936739;29;20047;-66
2023/05/30 04:23:17;;;;;;;14.47;3.40;;;11.10;83.50;;;;;;4938046;29;20043;-66
2023/05/30 04:25:44;;;;;;;12.97;3.10;;;11.10;83.20;;;;;;4936325;29;20525;-66
2023/05/30 04:28:16;;;;;;;14.40;3.65;;;11.20;83.10;;;;;;4937212;29;20039;-66
2023/05/30 04:30:42;;;;;;;11.88;3.20;;;11.20;83.00;;;;;;4936036;29;20054;-66
2023/05/30 04:33:09;;;;;;;10.90;3.40;;;11.20;82.90;;;;;;4940716;29;20082;-66
2023/05/30 04:35:35;;;;;;;12.10;3.08;;;11.20;82.60;;;;;;4935790;29;20391;-66
2023/05/30 04:38:00;;;;;;;15.17;3.00;;;11.30;82.50;;;;;;4919645;29;20454;-66
2023/05/30 04:40:27;;;;;;;11.20;3.17;;;11.30;82.50;;;;;;4935832;29;20051;-66
2023/05/30 04:42:53;;;;;;;12.52;3.10;;;11.30;82.50;;;;;;4918910;29;20499;-66
2023/05/30 04:45:26;;;;;;;13.83;3.07;;;11.40;82.50;;;;;;4934671;29;20039;-66
2023/05/30 04:47:52;;;;;;;13.90;3.28;;;11.40;82.60;;;;;;4929433;29;20106;-66
2023/05/30 04:50:19;;;;;;;12.00;3.40;;;11.40;82.60;;;;;;4918114;29;20582;-66
2023/05/30 04:52:45;;;;;;;15.55;3.20;;;11.40;82.90;;;;;;4931818;29;20094;-66
2023/05/30 04:55:12;;;;;;;17.08;3.70;;;11.40;82.80;;;;;;4930823;29;20519;-66
2023/05/30 04:57:38;;;;;;;12.20;3.13;;;11.50;82.70;;;;;;4937168;29;20051;-66
2023/05/30 05:00:10;;;;;;;12.20;3.03;;;11.50;82.90;;;;;;4935578;29;20046;-68
2023/05/30 05:02:38;;;;;;;14.52;3.58;;;11.50;83.00;;;;;;4937291;29;20054;-67
2023/05/30 05:05:05;;;;;;;11.90;3.17;;;11.50;82.60;;;;;;4935696;29;20047;-68
2023/05/30 05:07:31;;;;;;;9.77;2.47;;;11.50;82.60;;;;;;4934622;29;20054;-67
2023/05/30 05:09:57;;;;;;;9.38;3.03;;;11.50;83.00;;;;;;4935671;29;20194;-68
2023/05/30 05:12:22;;;;;;;13.40;2.90;;;11.50;83.10;;;;;;4919980;29;20130;-67
2023/05/30 05:14:50;;;;;;;11.77;2.63;;;11.50;83.60;;;;;;4924584;29;20416;-67
2023/05/30 05:17:16;;;;;;;12.93;3.13;;;11.60;83.50;;;;;;4916634;29;20171;-67
2023/05/30 05:19:41;;;;;;;11.70;2.63;;;11.50;84.30;;;;;;4927730;29;20601;-67
2023/05/30 05:22:08;;;;;;;13.17;2.83;;;11.50;84.50;;;;;;4915755;29;20385;-67
2023/05/30 05:24:33;;;;;;;9.30;3.00;;;11.50;84.80;;;;;;4932961;29;20083;-67
2023/05/30 05:26:59;;;;;;;9.57;2.57;;;11.50;85.00;;;;;;4930102;29;20216;-66
2023/05/30 05:29:25;;;;;;;8.90;2.50;;;11.50;84.80;;;;;;4922432;29;20047;-66
2023/05/30 05:31:51;;;;;;;9.30;2.60;;;11.50;84.70;;;;;;4934903;29;20103;-67
2023/05/30 05:34:17;;;;;;;10.25;2.45;;;11.50;85.00;;;;;;4931195;29;20122;-66
2023/05/30 05:36:43;;;;;;;10.40;2.70;;;11.60;85.10;;;;;;4915922;29;20606;-67
2023/05/30 05:39:09;;;;;;;8.20;2.50;;;11.60;85.40;;;;;;4918795;29;20106;-67
2023/05/30 05:41:35;;;;;;;9.37;2.20;;;11.60;85.50;;;;;;4933272;29;20427;-66
2023/05/30 05:44:01;;;;;;;7.03;2.20;;;11.60;85.10;;;;;;4932410;29;20123;-67
2023/05/30 05:46:27;;;;;;;5.78;2.10;;;11.60;85.20;;;;;;4931950;29;20043;-67
2023/05/30 05:48:54;;;;;;;8.73;2.20;;;11.60;85.30;;;;;;4933769;29;20345;-67
2023/05/30 05:51:20;;;;;;;7.90;2.15;;;11.60;86.00;;;;;;4921148;29;20038;-67
2023/05/30 05:53:46;;;;;;;7.47;2.05;;;11.60;85.80;;;;;;4929139;29;20043;-67
2023/05/30 05:56:12;;;;;;;6.70;2.37;;;11.70;85.70;;;;;;4935472;29;20055;-67
2023/05/30 05:58:38;;;;;;;6.63;2.10;;;11.70;85.50;;;;;;4929227;29;20043;-67
2023/05/30 06:01:04;;;;;;;8.40;2.40;;;11.70;85.90;;;;;;4914930;29;20082;-67
2023/05/30 06:03:30;;;;;;;7.80;2.60;;;11.70;86.00;;;;;;4932587;29;20050;-66
2023/05/30 06:05:56;;;;;;;7.15;2.00;;;11.80;85.70;;;;;;4924751;29;20043;-66
2023/05/30 06:08:22;;;;;;;7.40;2.13;;;11.80;85.90;;;;;;4942482;29;20582;-67
2023/05/30 06:10:48;;;;;;;6.73;2.20;;;11.80;85.60;;;;;;4918080;29;20092;-66
2023/05/30 06:13:15;;;;;;;10.03;2.07;;;11.90;85.90;;;;;;4937997;29;20411;-66
2023/05/30 06:15:41;;;;;;;6.18;1.88;;;11.90;86.70;;;;;;4932739;29;20050;-66
2023/05/30 06:18:07;;;;;;;7.10;2.00;;;11.80;86.60;;;;;;4916889;29;20039;-67
2023/05/30 06:20:33;;;;;;;12.50;2.43;;;11.80;86.50;;;;;;4935041;29;20071;-67
2023/05/30 06:22:58;;;;;;;11.87;2.10;;;11.80;87.20;;;;;;4934313;29;20046;-67
2023/05/30 06:25:26;;;;;;;7.63;2.67;;;11.80;87.30;;;;;;4936152;29;20074;-67
2023/05/30 06:27:52;;;;;;;9.80;2.40;;;11.90;87.80;;;;;;4934155;29;20040;-67
2023/05/30 06:30:18;;;;;;;7.50;2.30;;;11.90;87.90;;;;;;4935051;29;20094;-67
2023/05/30 06:32:44;;;;;;;11.10;2.00;;;12.00;87.80;;;;;;4934061;29;20075;-66
2023/05/30 06:35:10;;;;;;;6.95;1.92;;;12.00;87.70;;;;;;4935093;29;20291;-67
2023/05/30 06:37:35;;;;;;;6.47;1.90;;;12.10;87.70;;;;;;4934324;29;20126;-67
2023/05/30 06:40:02;;;;;;;7.20;1.80;;;12.10;87.40;;;;;;4933421;29;20106;-67
2023/05/30 06:42:28;;;;;;;5.30;1.95;;;12.20;87.70;;;;;;4933840;29;20059;-67
2023/05/30 06:44:54;;;;;;;5.40;1.87;;;12.20;87.10;;;;;;4919646;29;20043;-68
2023/05/30 06:47:20;;;;;;;12.00;1.83;;;12.20;87.10;;;;;;4918882;29;20047;-68
2023/05/30 06:49:46;;;;;;;8.00;1.60;;;12.30;86.80;;;;;;4935541;29;20126;-67
2023/05/30 06:52:12;;;;;;;5.87;1.67;;;12.30;86.70;;;;;;4936095;29;20047;-67
2023/05/30 06:54:38;;;;;;;10.43;2.33;;;12.30;86.70;;;;;;4934502;29;20075;-67
2023/05/30 06:57:04;;;;;;;5.93;1.83;;;12.20;87.10;;;;;;4936060;29;20547;-68
2023/05/30 06:59:34;;;;;;;7.07;1.63;;;12.20;87.70;;;;;;4935292;29;20127;-67
2023/05/30 07:02:03;;;;;;;4.35;1.13;;;12.20;87.70;;;;;;4949880;28;20302;-67
2023/05/30 07:04:29;;;;;;;3.67;1.08;;;12.20;87.10;;;;;;4934211;29;20052;-67
2023/05/30 07:06:55;;;;;;;3.83;1.30;;;12.30;86.80;;;;;;4919191;29;20098;-67
2023/05/30 07:09:21;;;;;;;7.03;1.50;;;12.30;86.70;;;;;;4928251;29;20047;-68
2023/05/30 07:11:46;;;;;;;5.80;1.57;;;12.40;86.50;;;;;;4939662;28;20052;-68
2023/05/30 07:14:12;;;;;;;7.67;1.90;;;12.40;86.80;;;;;;4941455;29;20090;-67
2023/05/30 07:16:38;;;;;;;6.97;1.67;;;12.50;86.90;;;;;;4924733;29;20099;-69
2023/05/30 07:19:06;;;;;;;4.30;1.50;;;12.60;87.10;;;;;;4940634;29;20463;-67
2023/05/30 07:21:31;;;;;;;5.63;1.40;;;12.60;86.70;;;;;;4936226;29;20326;-67
2023/05/30 07:23:57;;;;;;;7.50;1.30;;;12.70;86.80;;;;;;4933029;29;20331;-68
2023/05/30 07:26:23;;;;;;;6.67;1.13;;;12.70;86.80;;;;;;4938514;29;20554;-67
2023/05/30 07:28:49;;;;;;;4.07;1.17;;;12.70;87.10;;;;;;4923787;29;20047;-68
2023/05/30 07:31:15;;;;;;;4.20;1.00;;;12.70;87.50;;;;;;4933211;29;20036;-68
2023/05/30 07:33:41;;;;;;;4.47;1.30;;;12.80;87.80;;;;;;4939465;29;20099;-68
2023/05/30 07:36:07;;;;;;;5.40;1.30;;;12.80;88.10;;;;;;4918235;29;20287;-68
2023/05/30 07:38:33;;;;;;;4.07;1.10;;;12.80;88.40;;;;;;4918760;29;20535;-68
2023/05/30 07:40:59;;;;;;;7.00;1.20;;;12.90;88.30;;;;;;4918601;29;20680;-68
2023/05/30 07:43:25;;;;;;;3.90;0.97;;;13.00;88.00;;;;;;4934499;29;20322;-68
2023/05/30 07:45:51;;;;;;;5.10;1.60;;;13.10;87.90;;;;;;4939013;29;20043;-68
2023/05/30 07:48:18;;;;;;;3.33;1.00;;;13.20;87.30;;;;;;4936018;29;20044;-69
2023/05/30 07:50:44;;;;;;;4.47;1.40;;;13.30;87.20;;;;;;4921108;29;20483;-68
2023/05/30 07:53:10;;;;;;;3.63;1.00;;;13.30;87.10;;;;;;4948634;28;20290;-67
2023/05/30 07:55:36;;;;;;;3.73;1.00;;;13.40;86.10;;;;;;4937820;29;20122;-69
2023/05/30 07:58:01;;;;;;;4.97;1.17;;;13.50;85.50;;;;;;4934539;29;20047;-68
2023/05/30 08:00:28;;;;;;;3.70;1.00;;;13.50;84.90;;;;;;4936988;29;20078;-68
2023/05/30 08:02:53;;;;;;;4.27;0.97;;;13.50;84.90;;;;;;4933904;29;20054;-69
2023/05/30 08:05:19;;;;;;;4.37;1.00;;;13.50;85.10;;;;;;4939952;29;20698;-69
2023/05/30 08:07:45;;;;;;;4.03;1.07;;;13.50;84.20;;;;;;4933995;29;20044;-68
2023/05/30 08:10:11;;;;;;;5.33;1.30;;;13.50;83.80;;;;;;4923086;29;20047;-69
2023/05/30 08:12:38;;;;;;;3.10;1.27;;;13.60;83.90;;;;;;4938924;29;20314;-68
2023/05/30 08:15:04;;;;;;;3.40;1.10;;;13.60;84.10;;;;;;4921314;29;20039;-67
2023/05/30 08:17:29;;;;;;;4.10;0.80;;;13.60;85.60;;;;;;4933337;29;20404;-68
2023/05/30 08:19:55;;;;;;;4.57;1.27;;;13.60;86.60;;;;;;4943750;29;20322;-68
2023/05/30 08:22:23;;;;;;;3.70;0.70;;;13.70;87.10;;;;;;4919106;29;20065;-70
2023/05/30 08:24:50;;;;;;;3.40;0.90;;;13.80;88.10;;;;;;4925857;29;20146;-68
2023/05/30 08:27:17;;;;;;;3.50;0.90;;;13.90;87.60;;;;;;4932353;29;20314;-69
2023/05/30 08:29:44;;;;;;;3.10;0.90;;;14.10;87.50;;;;;;4943469;29;20285;-69
2023/05/30 08:32:10;;;;;;;4.13;0.80;;;14.20;87.70;;;;;;4938224;29;20402;-69
2023/05/30 08:34:36;;;;;;;5.73;0.70;;;14.40;86.70;;;;;;4932159;29;20803;-67
2023/05/30 08:37:02;;;;;;;4.63;0.70;;;14.50;85.30;;;;;;4932607;29;20075;-67
2023/05/30 08:39:28;;;;;;;2.83;0.60;;;14.60;83.90;;;;;;4932981;29;20299;-68
2023/05/30 08:41:54;;;;;;;2.07;0.40;;;14.70;83.40;;;;;;4933211;29;20283;-68
2023/05/30 08:44:20;;;;;;;2.47;0.70;;;14.80;82.40;;;;;;4918805;29;20050;-68
2023/05/30 08:46:46;;;;;;;2.03;0.70;;;15.00;81.50;;;;;;4939861;29;20428;-68
2023/05/30 08:49:21;;;;;;;1.20;0.50;;;15.20;80.60;;;;;;4932220;29;20450;-65
2023/05/30 08:51:48;;;;;;;2.17;0.40;;;15.20;77.50;;;;;;4931581;29;20368;-65
2023/05/30 08:54:23;;;;;;;0.90;0.30;;;15.30;76.60;;;;;;4932421;29;20359;-65
2023/05/30 08:57:02;;;;;;;1.40;0.60;;;15.30;74.80;;;;;;4934007;29;20303;-65
2023/05/30 08:59:29;;;;;;;2.03;0.50;;;15.30;73.50;;;;;;4932755;29;20154;-65
2023/05/30 09:01:56;;;;;;;1.77;0.30;;;15.20;74.00;;;;;;4934262;29;20829;-66
2023/05/30 09:04:23;;;;;;;1.30;0.40;;;15.20;73.80;;;;;;4927806;29;21247;-65
2023/05/30 09:06:51;;;;;;;2.80;0.40;;;15.30;73.10;;;;;;4932044;29;20401;-65
2023/05/30 09:09:18;;;;;;;2.60;0.50;;;15.20;72.60;;;;;;4920953;29;20296;-65
2023/05/30 09:11:43;;;;;;;2.87;0.83;;;15.20;73.60;;;;;;4927521;29;20354;-65
2023/05/30 09:14:09;;;;;;;2.77;0.60;;;15.10;73.70;;;;;;4927466;29;20787;-66
2023/05/30 09:16:36;;;;;;;1.97;0.57;;;15.10;74.60;;;;;;4931200;29;20455;-66
2023/05/30 09:19:02;;;;;;;1.73;0.50;;;15.00;74.30;;;;;;4933479;29;20549;-66
2023/05/30 09:21:30;;;;;;;3.37;0.70;;;14.80;75.10;;;;;;4929353;29;20617;-66
2023/05/30 09:24:04;;;;;;;2.57;0.77;;;14.50;76.30;;;;;;4933555;29;20295;-66
2023/05/30 09:26:30;;;;;;;1.17;0.70;;;14.40;77.50;;;;;;4932937;29;20317;-66
2023/05/30 09:29:01;;;;;;;2.20;1.00;;;14.30;79.00;;;;;;4914370;29;20342;-66
2023/05/30 09:31:26;;;;;;;3.20;0.80;;;14.30;79.30;;;;;;4949477;28;20778;-66
2023/05/30 09:33:53;;;;;;;1.70;0.70;;;14.30;79.30;;;;;;4932181;29;20298;-66
2023/05/30 09:36:20;;;;;;;1.40;0.70;;;14.20;79.30;;;;;;4936317;29;20102;-66
2023/05/30 09:39:02;;;;;;;1.97;0.60;;;14.00;80.30;;;;;;4919461;29;20373;-66
2023/05/30 09:41:28;;;;;;;3.60;1.20;;;14.00;80.80;;;;;;4935633;29;20783;-66
2023/05/30 09:43:56;;;;;;;2.80;1.23;;;14.10;80.90;;;;;;4919149;29;20870;-66
2023/05/30 09:46:27;;;;;;;3.33;0.80;;;14.40;80.70;;;;;;4934553;29;20311;-66
2023/05/30 09:48:54;;;;;;;4.50;0.93;;;14.70;79.60;;;;;;4934483;29;20283;-66
2023/05/30 09:51:21;;;;;;;3.20;0.60;;;14.80;78.10;;;;;;4934590;29;20319;-66
2023/05/30 09:54:09;;;;;;;1.93;0.70;;;14.80;77.60;;;;;;4934170;29;20794;-66
2023/05/30 09:56:35;;;;;;;2.73;0.87;;;14.70;77.10;;;;;;4933311;29;20374;-66
2023/05/30 09:59:09;;;;;;;2.00;0.77;;;14.50;77.30;;;;;;4933795;29;20287;-66
2023/05/30 10:01:42;;;;;;;3.60;0.87;;;14.30;77.00;;;;;;4917649;29;20283;-66
2023/05/30 10:04:14;;;;;;;4.30;0.90;;;14.20;77.60;;;;;;4918512;29;20684;-66
2023/05/30 10:06:42;;;;;;;3.13;1.20;;;14.20;77.90;;;;;;4917730;29;20334;-66
2023/05/30 10:09:09;;;;;;;2.17;0.90;;;14.20;77.80;;;;;;4926349;29;20291;-66
2023/05/30 10:11:40;;;;;;;2.47;0.90;;;14.20;77.50;;;;;;4944158;29;20386;-66
2023/05/30 10:14:07;;;;;;;3.30;1.27;;;14.30;77.30;;;;;;4942192;29;20712;-67
2023/05/30 10:16:35;;;;;;;3.53;1.10;;;14.50;77.30;;;;;;4944423;29;20385;-66
2023/05/30 10:19:04;;;;;;;2.97;1.40;;;14.70;76.70;;;;;;4920841;29;20296;-66
2023/05/30 10:21:32;;;;;;;2.07;1.20;;;14.90;75.20;;;;;;4917830;29;20331;-66
2023/05/30 10:24:00;;;;;;;4.03;0.80;;;14.90;74.10;;;;;;4938726;29;20311;-66
2023/05/30 10:26:33;;;;;;;2.73;0.80;;;14.80;74.00;;;;;;4944092;29;20386;-66
2023/05/30 10:29:01;;;;;;;2.97;1.00;;;14.70;74.70;;;;;;4925102;29;20893;-66
2023/05/30 10:31:28;;;;;;;3.33;0.80;;;14.60;75.10;;;;;;4940687;29;20295;-66
2023/05/30 10:33:55;;;;;;;2.90;1.17;;;14.40;75.80;;;;;;4938295;29;20330;-66
2023/05/30 10:36:21;;;;;;;2.83;0.50;;;14.40;76.60;;;;;;4943710;29;20338;-66
2023/05/30 10:39:07;;;;;;;2.07;0.57;;;14.50;76.80;;;;;;4938818;29;20342;-66
2023/05/30 10:41:40;;;;;;;1.57;0.50;;;14.70;76.80;;;;;;4906604;29;20300;-66
2023/05/30 10:44:16;;;;;;;2.37;0.50;;;14.80;75.70;;;;;;4938278;29;20298;-66
2023/05/30 10:47:05;;;;;;;0.70;0.40;;;14.90;75.20;;;;;;4938278;29;20398;-66
2023/05/30 10:49:32;;;;;;;2.10;0.47;;;14.90;74.20;;;;;;4935582;29;20381;-66
2023/05/30 10:52:04;;;;;;;1.73;0.60;;;14.90;73.90;;;;;;4924059;29;20280;-66
2023/05/30 10:54:35;;;;;;;2.20;0.57;;;15.10;73.90;;;;;;4925961;29;20294;-66
2023/05/30 10:57:27;;;;;;;1.87;0.40;;;15.30;73.60;;;;;;4920905;29;20323;-66
2023/05/30 10:59:59;;;;;;;1.80;0.40;;;15.50;73.10;;;;;;4935337;29;20295;-68
2023/05/30 11:02:34;;;;;;;1.63;0.40;;;15.70;72.20;;;;;;4942303;29;20286;-68
2023/05/30 11:05:08;;;;;;;1.63;0.40;;;15.90;71.50;;;;;;4925041;29;20292;-70
2023/05/30 11:07:38;;;;;;;1.87;0.30;;;16.00;70.10;;;;;;4937806;29;20303;-68
2023/05/30 11:10:11;;;;;;;2.63;0.40;;;15.90;69.00;;;;;;4926747;29;20408;-68
2023/05/30 11:12:43;;;;;;;0.97;0.30;;;15.80;69.60;;;;;;4917694;29;20314;-68
2023/05/30 11:15:13;;;;;;;3.23;0.60;;;15.70;69.50;;;;;;4940197;29;20299;-69
2023/05/30 11:17:39;;;;;;;1.10;0.43;;;15.70;68.80;;;;;;4940404;29;20672;-68
2023/05/30 11:20:15;;;;;;;0.63;0.30;;;15.70;68.60;;;;;;4933864;29;20299;-66
2023/05/30 11:23:01;;;;;;;1.00;0.47;;;15.80;68.90;;;;;;4934457;29;20106;-68
2023/05/30 11:25:29;;;;;;;0.80;0.30;;;15.90;67.60;;;;;;4932759;29;20319;-69
2023/05/30 11:28:16;;;;;;;0.60;0.30;;;16.00;66.60;;;;;;4941732;29;20318;-68
2023/05/30 11:30:56;;;;;;;2.70;0.50;;;16.10;65.40;;;;;;4918553;29;20298;-69
2023/05/30 11:33:24;;;;;;;2.43;0.60;;;16.10;66.60;;;;;;4935398;29;20660;-68
2023/05/30 11:35:53;;;;;;;2.33;0.50;;;16.20;67.50;;;;;;4935424;29;20279;-68
2023/05/30 11:38:23;;;;;;;2.00;0.50;;;16.20;68.00;;;;;;4938987;29;20331;-68
2023/05/30 11:40:50;;;;;;;3.10;0.50;;;16.20;68.10;;;;;;4923362;29;20053;-69
2023/05/30 11:43:17;;;;;;;2.10;0.53;;;16.20;68.60;;;;;;4917331;29;20295;-68
2023/05/30 11:45:45;;;;;;;2.33;0.63;;;16.30;68.90;;;;;;4937151;29;20382;-68
2023/05/30 11:48:11;;;;;;;2.00;0.50;;;16.30;67.70;;;;;;4933625;29;20304;-68
2023/05/30 11:50:41;;;;;;;1.27;0.60;;;16.30;67.50;;;;;;4939312;29;20290;-68
2023/05/30 11:53:26;;;;;;;1.10;0.60;;;16.20;67.30;;;;;;4935716;29;20291;-68
2023/05/30 11:55:55;;;;;;;1.50;0.60;;;16.20;67.30;;;;;;4935833;29;20288;-68
2023/05/30 11:58:21;;;;;;;2.83;0.57;;;16.30;67.00;;;;;;4933502;29;20346;-68
2023/05/30 12:00:47;;;;;;;0.80;0.60;;;16.50;66.60;;;;;;4932070;29;20117;-69
2023/05/30 12:03:16;;;;;;;1.40;0.50;;;16.80;66.80;;;;;;4917032;29;20051;-69
2023/05/30 12:05:47;;;;;;;1.20;0.47;;;17.00;65.60;;;;;;4934475;29;20105;-69
2023/05/30 12:08:18;;;;;;;1.13;0.40;;;17.20;65.70;;;;;;4913567;29;20664;-70
2023/05/30 12:10:45;;;;;;;1.80;0.70;;;17.40;64.30;;;;;;4929558;29;20292;-68
2023/05/30 12:13:11;;;;;;;2.00;0.40;;;17.60;64.50;;;;;;4924772;29;20783;-68
2023/05/30 12:15:37;;;;;;;1.50;0.43;;;17.80;63.10;;;;;;4941404;29;20398;-68
2023/05/30 12:18:03;;;;;;;0.87;0.40;;;17.90;60.80;;;;;;4926073;29;20294;-68
2023/05/30 12:20:29;;;;;;;1.20;0.43;;;17.90;61.30;;;;;;4934031;29;20323;-68
2023/05/30 12:22:55;;;;;;;1.13;0.50;;;18.00;61.10;;;;;;4931928;29;20326;-69
2023/05/30 12:25:26;;;;;;;1.63;0.30;;;17.90;61.00;;;;;;4915992;29;20698;-68
2023/05/30 12:27:55;;;;;;;0.90;0.50;;;18.10;60.60;;;;;;4932502;29;20051;-67
2023/05/30 12:30:22;;;;;;;0.90;0.30;;;18.00;60.60;;;;;;4930838;29;20296;-67
2023/05/30 12:32:48;;;;;;;1.93;0.53;;;18.00;60.50;;;;;;4931075;29;20327;-67
2023/05/30 12:35:15;;;;;;;1.53;0.50;;;17.90;60.60;;;;;;4920618;29;20284;-67
2023/05/30 12:37:41;;;;;;;2.20;0.50;;;17.70;60.20;;;;;;4914850;29;20386;-68
2023/05/30 12:40:08;;;;;;;1.63;0.60;;;17.50;61.10;;;;;;4931073;29;20295;-67
2023/05/30 12:42:38;;;;;;;2.00;0.40;;;17.30;62.30;;;;;;4935677;29;20314;-67
2023/05/30 12:45:05;;;;;;;2.67;0.60;;;17.30;63.00;;;;;;4931578;29;20306;-67
2023/05/30 12:47:31;;;;;;;2.17;0.70;;;17.20;62.40;;;;;;4930891;29;21054;-67